createdAt,value
2018-03-03T00:00:35.055Z,62.30
2018-03-03T00:03:02.603Z,62.16
2018-03-03T00:05:30.197Z,62.17
2018-03-03T00:07:58.667Z,61.44
2018-03-03T00:10:26.225Z,60.72
2018-03-03T00:12:53.831Z,59.57
2018-03-03T00:15:21.761Z,59.87
2018-03-03T00:17:49.307Z,60.07
2018-03-03T00:20:17.064Z,59.33
2018-03-03T00:22:44.615Z,58.79
2018-03-03T00:25:12.672Z,60.20
2018-03-03T00:27:40.269Z,60.89
2018-03-03T00:30:07.832Z,62.10
2018-03-03T00:32:35.612Z,63.59
2018-03-03T00:35:03.164Z,64.11
2018-03-03T00:37:31.132Z,62.58
2018-03-03T00:39:58.685Z,63.14
2018-03-03T00:42:26.289Z,63.28
2018-03-03T00:44:53.848Z,63.31
2018-03-03T00:47:22.381Z,63.55
2018-03-03T00:49:49.927Z,63.43
2018-03-03T00:52:17.484Z,64.08
2018-03-03T00:54:45.913Z,64.43
2018-03-03T00:57:13.463Z,64.48
2018-03-03T00:59:41.078Z,62.91
2018-03-03T01:02:08.632Z,61.00
2018-03-03T01:04:36.175Z,60.17
2018-03-03T01:07:03.991Z,58.34
2018-03-03T01:09:31.538Z,59.66
2018-03-03T01:11:59.124Z,59.66
2018-03-03T01:14:26.697Z,60.74
2018-03-03T01:16:55.532Z,59.19
2018-03-03T01:19:23.075Z,58.80
2018-03-03T01:21:51.347Z,58.12
2018-03-03T01:24:18.947Z,58.74
2018-03-03T01:26:46.984Z,58.23
2018-03-03T01:29:15.371Z,58.71
2018-03-03T01:31:42.914Z,58.45
2018-03-03T01:34:10.502Z,57.13
2018-03-03T01:36:38.107Z,57.16
2018-03-03T01:39:05.996Z,59.82
2018-03-03T01:41:33.549Z,58.83
2018-03-03T01:44:01.157Z,57.34
2018-03-03T01:46:29.199Z,58.92
2018-03-03T01:48:57.974Z,58.02
2018-03-03T01:51:37.403Z,56.61
2018-03-03T01:54:05.002Z,55.32
2018-03-03T01:56:32.566Z,53.99
2018-03-03T01:59:00.155Z,55.41
2018-03-03T02:01:27.999Z,55.41
2018-03-03T02:03:55.596Z,57.37
2018-03-03T02:06:23.147Z,57.70
2018-03-03T02:08:50.861Z,58.10
2018-03-03T02:11:18.457Z,59.04
2018-03-03T02:13:47.247Z,60.31
2018-03-03T02:16:14.841Z,61.07
2018-03-03T02:18:42.448Z,60.94
2018-03-03T02:21:10.540Z,60.71
2018-03-03T02:23:38.141Z,61.03
2018-03-03T02:26:05.746Z,60.92
2018-03-03T02:28:33.291Z,60.41
2018-03-03T02:31:00.896Z,60.53
2018-03-03T02:33:28.779Z,59.98
2018-03-03T02:35:56.340Z,60.74
2018-03-03T02:38:23.897Z,61.22
2018-03-03T02:40:51.496Z,62.40
2018-03-03T02:43:19.365Z,60.71
2018-03-03T02:45:46.948Z,58.82
2018-03-03T02:48:15.202Z,58.90
2018-03-03T02:50:42.908Z,61.01
2018-03-03T02:53:10.516Z,62.82
2018-03-03T02:55:38.077Z,60.84
2018-03-03T02:58:05.673Z,59.13
2018-03-03T03:00:33.282Z,60.74
2018-03-03T03:03:00.888Z,61.26
2018-03-03T03:05:28.557Z,63.38
2018-03-03T03:07:56.545Z,64.19
2018-03-03T03:10:24.136Z,64.74
2018-03-03T03:12:51.735Z,64.31
2018-03-03T03:15:19.296Z,63.69
2018-03-03T03:17:47.138Z,62.71
2018-03-03T03:20:14.687Z,62.10
2018-03-03T03:22:42.251Z,61.12
2018-03-03T03:25:09.878Z,60.05
2018-03-03T03:27:37.499Z,59.93
2018-03-03T03:30:05.061Z,59.59
2018-03-03T03:32:32.656Z,60.45
2018-03-03T03:35:00.620Z,60.61
2018-03-03T03:37:28.197Z,61.26
2018-03-03T03:39:55.787Z,61.82
2018-03-03T03:42:23.349Z,61.55
2018-03-03T03:44:50.936Z,61.72
2018-03-03T03:47:18.487Z,61.59
2018-03-03T03:49:46.084Z,62.21
2018-03-03T03:52:13.628Z,62.57
2018-03-03T03:54:41.228Z,64.26
2018-03-03T03:57:09.173Z,66.33
2018-03-03T03:59:36.724Z,67.37
2018-03-03T04:02:04.319Z,67.50
2018-03-03T04:04:31.867Z,68.37
2018-03-03T04:06:59.450Z,68.74
2018-03-03T04:09:27.868Z,69.42
2018-03-03T04:11:55.461Z,69.51
2018-03-03T04:14:24.027Z,68.25
2018-03-03T04:16:52.105Z,68.32
2018-03-03T04:19:19.703Z,68.15
2018-03-03T04:21:47.761Z,65.01
2018-03-03T04:24:15.335Z,66.13
2018-03-03T04:26:42.957Z,64.02
2018-03-03T04:29:11.350Z,63.06
2018-03-03T04:31:39.093Z,64.90
2018-03-03T04:34:06.683Z,66.33
2018-03-03T04:36:34.224Z,65.85
2018-03-03T04:39:01.839Z,66.40
2018-03-03T04:41:29.392Z,66.36
2018-03-03T04:43:56.989Z,66.62
2018-03-03T04:46:25.005Z,68.03
2018-03-03T04:48:52.616Z,68.72
2018-03-03T04:51:20.714Z,67.27
2018-03-03T04:53:48.336Z,66.34
2018-03-03T04:56:16.146Z,67.11
2018-03-03T05:01:51.602Z,68.31
2018-03-03T05:07:40.737Z,68.19
2018-03-03T05:10:08.340Z,66.65
2018-03-03T05:12:39.530Z,67.54
2018-03-03T05:18:32.033Z,64.85
2018-03-03T05:24:09.131Z,63.38
2018-03-03T05:26:42.125Z,60.63
2018-03-03T05:32:21.200Z,59.01
2018-03-03T05:34:54.346Z,63.72
2018-03-03T05:37:27.487Z,66.40
2018-03-03T05:40:00.799Z,63.35
2018-03-03T05:42:33.985Z,64.01
2018-03-03T05:48:21.096Z,69.06
2018-03-03T05:54:02.515Z,71.04
2018-03-03T05:59:51.862Z,68.83
2018-03-03T06:05:28.665Z,69.23
2018-03-03T06:08:01.676Z,70.69
2018-03-03T06:10:31.815Z,70.47
2018-03-03T06:12:59.412Z,70.25
2018-03-03T06:15:26.964Z,68.86
2018-03-03T06:17:55.455Z,69.15
2018-03-03T06:20:23.041Z,69.21
2018-03-03T06:22:51.103Z,69.02
2018-03-03T06:25:18.695Z,66.00
2018-03-03T06:27:46.283Z,64.52
2018-03-03T06:30:13.826Z,63.91
2018-03-03T06:32:41.419Z,62.89
2018-03-03T06:35:08.959Z,61.31
2018-03-03T06:37:36.522Z,62.57
2018-03-03T06:40:05.108Z,63.45
2018-03-03T06:42:32.764Z,61.05
2018-03-03T06:45:00.325Z,60.97
2018-03-03T06:47:27.893Z,62.13
2018-03-03T06:49:55.489Z,62.05
2018-03-03T06:52:23.887Z,63.56
2018-03-03T06:54:51.466Z,64.10
2018-03-03T06:57:19.064Z,64.82
2018-03-03T06:59:46.612Z,65.44
2018-03-03T07:02:14.212Z,65.72
2018-03-03T07:04:41.804Z,64.81
2018-03-03T07:07:09.360Z,64.10
2018-03-03T07:09:36.961Z,62.54
2018-03-03T07:12:04.548Z,61.52
2018-03-03T07:17:34.835Z,62.61
2018-03-03T07:20:03.201Z,61.96
2018-03-03T07:22:30.879Z,62.30
2018-03-03T07:24:58.417Z,62.24
2018-03-03T07:27:26.561Z,61.28
2018-03-03T07:29:55.849Z,59.84
2018-03-03T07:32:23.407Z,60.74
2018-03-03T07:34:50.988Z,60.77
2018-03-03T07:37:18.579Z,60.32
2018-03-03T07:39:46.123Z,61.26
2018-03-03T07:42:13.962Z,61.40
2018-03-03T07:44:41.516Z,60.65
2018-03-03T07:47:09.327Z,58.97
2018-03-03T07:49:36.923Z,55.65
2018-03-03T07:52:04.868Z,55.95
2018-03-03T07:54:33.081Z,55.32
2018-03-03T07:57:13.516Z,53.90
2018-03-03T07:59:41.071Z,54.93
2018-03-03T08:02:09.400Z,55.26
2018-03-03T08:04:37.482Z,55.91
2018-03-03T08:07:05.068Z,55.52
2018-03-03T08:09:33.383Z,53.46
2018-03-03T08:12:01.538Z,54.42
2018-03-03T08:14:29.919Z,55.52
2018-03-03T08:16:57.471Z,53.91
2018-03-03T08:19:26.062Z,55.15
2018-03-03T08:21:53.989Z,54.71
2018-03-03T08:24:21.615Z,54.57
2018-03-03T08:26:49.167Z,54.63
2018-03-03T08:29:17.271Z,52.50
2018-03-03T08:31:46.128Z,53.61
2018-03-03T08:34:14.602Z,54.14
2018-03-03T08:36:43.683Z,54.06
2018-03-03T08:39:11.292Z,54.69
2018-03-03T08:41:38.938Z,55.67
2018-03-03T08:44:07.183Z,56.07
2018-03-03T08:46:35.389Z,55.58
2018-03-03T08:49:04.264Z,55.37
2018-03-03T08:51:31.857Z,55.73
2018-03-03T08:53:59.508Z,52.86
2018-03-03T08:56:27.862Z,51.94
2018-03-03T08:58:55.452Z,54.47
2018-03-03T09:01:23.003Z,54.42
2018-03-03T09:03:50.804Z,54.78
2018-03-03T09:06:18.884Z,54.65
2018-03-03T09:08:46.465Z,54.20
2018-03-03T09:11:14.745Z,54.94
2018-03-03T09:13:42.343Z,54.10
2018-03-03T09:16:09.903Z,54.64
2018-03-03T09:18:37.519Z,52.91
2018-03-03T09:21:05.646Z,51.41
2018-03-03T09:23:33.203Z,50.48
2018-03-03T09:26:00.813Z,51.02
2018-03-03T09:28:28.417Z,51.64
2018-03-03T09:30:56.914Z,50.59
2018-03-03T09:33:24.553Z,50.45
2018-03-03T09:35:53.002Z,50.92
2018-03-03T09:38:20.604Z,50.17
2018-03-03T09:40:48.161Z,50.75
2018-03-03T09:43:16.284Z,51.14
2018-03-03T09:45:43.839Z,49.97
2018-03-03T09:48:11.436Z,49.37
2018-03-03T09:50:39.027Z,49.50
2018-03-03T09:53:06.638Z,49.80
2018-03-03T09:55:34.802Z,49.75
2018-03-03T09:58:02.423Z,49.69
2018-03-03T10:00:30.138Z,49.58
2018-03-03T10:02:57.751Z,49.73
2018-03-03T10:05:26.116Z,49.85
2018-03-03T10:07:54.781Z,49.94
2018-03-03T10:10:22.352Z,50.03
2018-03-03T10:12:52.196Z,49.91
2018-03-03T10:15:19.802Z,49.61
2018-03-03T10:17:47.349Z,49.57
2018-03-03T10:20:16.488Z,49.57
2018-03-03T10:22:44.872Z,49.36
2018-03-03T10:25:14.372Z,49.53
2018-03-03T10:27:41.928Z,49.48
2018-03-03T10:30:09.999Z,49.23
2018-03-03T10:32:37.547Z,49.08
2018-03-03T10:35:05.123Z,48.89
2018-03-03T10:37:32.840Z,48.56
2018-03-03T10:40:00.945Z,48.30
2018-03-03T10:42:28.723Z,48.19
2018-03-03T10:44:56.652Z,49.06
2018-03-03T10:47:25.168Z,49.15
2018-03-03T10:49:53.747Z,49.20
2018-03-03T10:52:21.300Z,49.12
2018-03-03T10:54:49.683Z,49.06
2018-03-03T10:57:18.109Z,48.93
2018-03-03T10:59:45.863Z,48.82
2018-03-03T11:02:13.417Z,48.85
2018-03-03T11:04:40.981Z,48.91
2018-03-03T11:07:08.588Z,48.96
2018-03-03T11:09:36.197Z,49.03
2018-03-03T11:12:04.222Z,49.18
2018-03-03T11:14:31.770Z,49.32
2018-03-03T11:17:00.042Z,49.47
2018-03-03T11:19:28.544Z,49.22
2018-03-03T11:21:57.000Z,49.20
2018-03-03T11:24:24.560Z,49.20
2018-03-03T11:26:52.161Z,49.16
2018-03-03T11:29:20.844Z,49.18
2018-03-03T11:31:48.442Z,49.29
2018-03-03T11:34:16.565Z,49.49
2018-03-03T11:36:45.329Z,49.77
2018-03-03T11:39:13.321Z,50.01
2018-03-03T11:41:40.890Z,50.49
2018-03-03T11:44:08.501Z,50.32
2018-03-03T11:46:36.058Z,50.16
2018-03-03T11:49:04.448Z,50.13
2018-03-03T11:51:32.420Z,50.28
2018-03-03T11:54:00.217Z,50.61
2018-03-03T11:56:27.785Z,50.84
2018-03-03T11:58:55.344Z,50.92
2018-03-03T12:01:23.250Z,51.17
2018-03-03T12:03:51.688Z,51.27
2018-03-03T12:06:19.794Z,51.17
2018-03-03T12:08:48.060Z,51.17
2018-03-03T12:11:15.612Z,51.35
2018-03-03T12:13:43.211Z,51.13
2018-03-03T12:16:10.816Z,51.23
2018-03-03T12:18:38.409Z,51.02
2018-03-03T12:21:06.179Z,50.93
2018-03-03T12:23:34.752Z,50.89
2018-03-03T12:26:02.304Z,50.89
2018-03-03T12:28:29.896Z,50.88
2018-03-03T12:30:57.461Z,50.87
2018-03-03T12:33:27.009Z,50.85
2018-03-03T12:35:54.628Z,50.79
2018-03-03T12:38:22.184Z,50.71
2018-03-03T12:40:49.792Z,50.76
2018-03-03T12:43:17.386Z,50.74
2018-03-03T12:45:44.946Z,50.71
2018-03-03T12:48:13.056Z,50.77
2018-03-03T12:50:41.191Z,50.74
2018-03-03T12:53:08.784Z,50.70
2018-03-03T12:55:36.357Z,50.38
2018-03-03T12:58:03.948Z,49.74
2018-03-03T13:00:31.515Z,49.39
2018-03-03T13:02:59.117Z,48.82
2018-03-03T13:05:26.681Z,48.36
2018-03-03T13:07:54.294Z,47.73
2018-03-03T13:10:21.851Z,47.09
2018-03-03T13:12:50.032Z,46.69
2018-03-03T13:15:18.405Z,46.22
2018-03-03T13:17:45.996Z,46.11
2018-03-03T13:20:13.611Z,45.90
2018-03-03T13:22:41.178Z,45.53
2018-03-03T13:25:08.787Z,45.22
2018-03-03T13:27:36.335Z,45.11
2018-03-03T13:30:04.379Z,44.98
2018-03-03T13:32:31.977Z,45.22
2018-03-03T13:34:59.868Z,45.46
2018-03-03T13:37:27.972Z,45.68
2018-03-03T13:39:56.130Z,45.97
2018-03-03T13:42:23.737Z,46.35
2018-03-03T13:44:51.288Z,46.65
2018-03-03T13:47:19.407Z,47.08
2018-03-03T13:49:47.005Z,47.40
2018-03-03T13:52:15.192Z,47.69
2018-03-03T13:54:42.739Z,47.90
2018-03-03T13:57:11.280Z,47.99
2018-03-03T13:59:39.286Z,48.16
2018-03-03T14:02:06.830Z,48.31
2018-03-03T14:04:34.416Z,48.50
2018-03-03T14:07:02.294Z,48.63
2018-03-03T14:09:29.892Z,48.93
2018-03-03T14:11:57.453Z,48.91
2018-03-03T14:14:25.062Z,48.78
2018-03-03T14:16:52.639Z,49.09
2018-03-03T14:19:20.288Z,49.54
2018-03-03T14:21:47.889Z,49.86
2018-03-03T14:24:16.417Z,50.14
2018-03-03T14:26:45.157Z,50.08
2018-03-03T14:29:13.997Z,49.96
2018-03-03T14:31:41.564Z,50.10
2018-03-03T14:34:09.805Z,50.21
2018-03-03T14:36:37.358Z,50.39
2018-03-03T14:39:05.017Z,50.48
2018-03-03T14:41:32.968Z,50.46
2018-03-03T14:44:00.538Z,50.47
2018-03-03T14:46:28.155Z,50.49
2018-03-03T14:48:56.131Z,50.54
2018-03-03T14:51:25.107Z,50.61
2018-03-03T14:53:52.663Z,50.70
2018-03-03T14:56:20.510Z,50.72
2018-03-03T14:58:48.128Z,51.02
2018-03-03T15:01:16.044Z,51.28
2018-03-03T15:03:43.591Z,51.40
2018-03-03T15:06:11.919Z,51.46
2018-03-03T15:08:39.477Z,51.39
2018-03-03T15:11:08.437Z,51.28
2018-03-03T15:13:36.057Z,51.22
2018-03-03T15:16:04.436Z,51.62
2018-03-03T15:18:32.653Z,51.54
2018-03-03T15:21:00.650Z,51.58
2018-03-03T15:23:29.317Z,51.44
2018-03-03T15:25:57.382Z,51.38
2018-03-03T15:28:24.973Z,51.40
2018-03-03T15:30:52.744Z,51.62
2018-03-03T15:33:20.299Z,51.72
2018-03-03T15:35:47.842Z,51.95
2018-03-03T15:38:15.436Z,52.03
2018-03-03T15:40:42.987Z,51.94
2018-03-03T15:43:11.030Z,51.92
2018-03-03T15:45:38.623Z,51.92
2018-03-03T15:48:06.242Z,52.13
2018-03-03T15:50:33.824Z,52.19
2018-03-03T15:53:01.414Z,52.55
2018-03-03T15:55:30.087Z,52.71
2018-03-03T15:57:58.786Z,52.54
2018-03-03T16:00:26.835Z,52.42
2018-03-03T16:02:54.392Z,52.47
2018-03-03T16:05:21.954Z,52.56
2018-03-03T16:07:49.849Z,52.63
2018-03-03T16:10:17.792Z,53.11
2018-03-03T16:12:46.588Z,53.50
2018-03-03T16:15:14.845Z,56.49
2018-03-03T16:17:44.639Z,55.96
2018-03-03T16:20:12.243Z,57.25
2018-03-03T16:22:39.810Z,57.88
2018-03-03T16:25:08.806Z,57.51
2018-03-03T16:27:37.338Z,56.98
2018-03-03T16:30:06.211Z,57.85
2018-03-03T16:32:34.465Z,58.86
2018-03-03T16:35:02.973Z,56.67
2018-03-03T16:37:30.580Z,58.42
2018-03-03T16:39:59.220Z,57.25
2018-03-03T16:42:26.840Z,56.45
2018-03-03T16:44:54.396Z,56.80
2018-03-03T16:47:22.238Z,57.67
2018-03-03T16:49:49.845Z,57.61
2018-03-03T16:52:17.398Z,57.20
2018-03-03T16:54:44.952Z,57.12
2018-03-03T16:57:13.466Z,56.74
2018-03-03T16:59:41.171Z,56.27
2018-03-03T17:02:08.780Z,55.99
2018-03-03T17:04:36.853Z,57.24
2018-03-03T17:07:04.492Z,56.52
2018-03-03T17:09:33.000Z,56.40
2018-03-03T17:12:01.124Z,57.65
2018-03-03T17:14:28.729Z,57.13
2018-03-03T17:16:56.930Z,56.81
2018-03-03T17:19:25.322Z,56.60
2018-03-03T17:21:53.029Z,57.23
2018-03-03T17:24:21.547Z,56.64
2018-03-03T17:26:49.098Z,57.31
2018-03-03T17:29:17.684Z,56.69
2018-03-03T17:31:45.244Z,56.80
2018-03-03T17:34:13.686Z,55.39
2018-03-03T17:36:42.588Z,55.86
2018-03-03T17:39:10.169Z,57.19
2018-03-03T17:41:37.723Z,55.68
2018-03-03T17:44:05.320Z,55.51
2018-03-03T17:46:32.928Z,55.22
2018-03-03T17:49:00.496Z,55.09
2018-03-03T17:51:29.477Z,56.24
2018-03-03T17:53:57.557Z,56.99
2018-03-03T17:56:25.130Z,56.52
2018-03-03T17:58:53.622Z,57.85
2018-03-03T18:01:22.336Z,58.40
2018-03-03T18:03:50.717Z,57.41
2018-03-03T18:06:19.092Z,58.49
2018-03-03T18:08:46.720Z,58.03
2018-03-03T18:11:16.473Z,58.80
2018-03-03T18:13:44.032Z,59.53
2018-03-03T18:16:12.907Z,58.28
2018-03-03T18:18:40.677Z,57.98
2018-03-03T18:21:08.440Z,58.44
2018-03-03T18:23:36.189Z,58.78
2018-03-03T18:26:03.771Z,59.30
2018-03-03T18:28:31.333Z,60.43
2018-03-03T18:30:59.215Z,60.74
2018-03-03T18:33:27.849Z,61.08
2018-03-03T18:35:55.826Z,61.84
2018-03-03T18:38:23.442Z,61.91
2018-03-03T18:40:52.227Z,61.07
2018-03-03T18:43:19.840Z,62.44
2018-03-03T18:45:47.611Z,61.74
2018-03-03T18:48:15.218Z,62.03
2018-03-03T18:50:43.267Z,61.29
2018-03-03T18:53:10.859Z,60.48
2018-03-03T18:55:38.472Z,60.69
2018-03-03T18:58:06.690Z,62.65
2018-03-03T19:00:35.104Z,63.72
2018-03-03T19:03:03.703Z,62.49
2018-03-03T19:05:31.351Z,61.49
2018-03-03T19:07:59.326Z,60.64
2018-03-03T19:10:26.932Z,61.28
2018-03-03T19:12:55.182Z,60.84
2018-03-03T19:15:24.946Z,60.61
2018-03-03T19:17:52.776Z,59.69
2018-03-03T19:20:20.924Z,59.15
2018-03-03T19:22:50.114Z,59.38
2018-03-03T19:25:18.981Z,58.98
2018-03-03T19:27:46.550Z,58.92
2018-03-03T19:30:15.033Z,58.29
2018-03-03T19:32:49.022Z,58.56
2018-03-03T19:35:18.582Z,59.77
2018-03-03T19:37:46.369Z,60.07
2018-03-03T19:40:13.932Z,59.57
2018-03-03T19:42:41.549Z,59.20
2018-03-03T19:45:09.481Z,59.86
2018-03-03T19:47:37.808Z,59.91
2018-03-03T19:50:05.438Z,59.98
2018-03-03T19:52:34.936Z,60.54
2018-03-03T19:55:03.422Z,60.11
2018-03-03T19:57:30.980Z,59.79
2018-03-03T19:59:59.068Z,60.81
2018-03-03T20:02:26.681Z,59.78
2018-03-03T20:04:56.282Z,58.97
2018-03-03T20:07:24.672Z,59.00
2018-03-03T20:09:52.243Z,60.28
2018-03-03T20:12:20.201Z,62.06
2018-03-03T20:14:48.289Z,62.85
2018-03-03T20:17:15.896Z,63.15
2018-03-03T20:19:43.453Z,63.81
2018-03-03T20:22:12.764Z,63.53
2018-03-03T20:24:40.365Z,63.05
2018-03-03T20:27:07.921Z,63.55
2018-03-03T20:29:35.519Z,65.30
2018-03-03T20:32:03.107Z,65.87
2018-03-03T20:34:30.754Z,66.02
2018-03-03T20:36:59.175Z,66.19
2018-03-03T20:39:27.637Z,65.74
2018-03-03T20:41:55.208Z,64.29
2018-03-03T20:44:22.831Z,65.55
2018-03-03T20:46:50.391Z,66.39
2018-03-03T20:49:17.993Z,66.38
2018-03-03T20:51:46.250Z,65.02
2018-03-03T20:54:14.267Z,64.43
2018-03-03T20:56:41.874Z,65.32
2018-03-03T20:59:09.428Z,64.32
2018-03-03T21:01:38.008Z,63.69
2018-03-03T21:04:05.564Z,63.34
2018-03-03T21:18:35.809Z,62.87
2018-03-03T21:21:03.350Z,62.36
2018-03-03T21:23:30.934Z,64.18
2018-03-03T21:25:58.481Z,65.31
2018-03-03T21:28:26.018Z,64.20
2018-03-03T21:30:53.600Z,65.50
2018-03-03T21:33:21.228Z,65.85
2018-03-03T21:35:49.007Z,66.42
2018-03-03T21:38:16.602Z,65.81
2018-03-03T21:40:44.826Z,66.32
2018-03-03T21:43:13.383Z,64.52
2018-03-03T21:45:41.456Z,63.70
2018-03-03T21:48:09.052Z,63.34
2018-03-03T21:50:36.669Z,63.23
2018-03-03T21:53:04.212Z,63.59
2018-03-03T21:55:31.764Z,64.11
2018-03-03T21:57:59.621Z,64.25
2018-03-03T22:00:27.500Z,63.77
2018-03-03T22:02:55.840Z,64.63
2018-03-03T22:05:23.484Z,66.32
2018-03-03T22:07:51.603Z,65.92
2018-03-03T22:10:19.195Z,66.69
2018-03-03T22:12:46.775Z,66.68
2018-03-03T22:15:14.424Z,66.28
2018-03-03T22:17:42.312Z,66.08
2018-03-03T22:20:10.757Z,67.46
2018-03-03T22:22:38.303Z,67.61
2018-03-03T22:25:05.840Z,67.83
2018-03-03T22:27:33.432Z,68.42
2018-03-03T22:30:00.967Z,68.34
2018-03-03T22:32:28.559Z,67.17
2018-03-03T22:34:56.108Z,66.26
2018-03-03T22:37:23.697Z,67.38
2018-03-03T22:39:51.235Z,67.86
2018-03-03T22:42:18.813Z,67.10
2018-03-03T22:44:46.368Z,66.20
2018-03-03T22:47:13.963Z,66.48
2018-03-03T22:49:41.508Z,65.91
2018-03-03T22:52:09.118Z,65.72
2018-03-03T22:54:36.768Z,64.72
2018-03-03T22:57:04.956Z,65.21
2018-03-03T22:59:32.519Z,64.60
2018-03-03T23:02:00.103Z,63.84
2018-03-03T23:04:27.652Z,63.33
2018-03-03T23:06:55.240Z,63.95
2018-03-03T23:09:22.896Z,63.84
2018-03-03T23:11:50.479Z,63.73
2018-03-03T23:14:18.064Z,63.16
2018-03-03T23:16:45.704Z,62.86
2018-03-03T23:19:13.300Z,62.33
2018-03-03T23:21:40.838Z,63.41
2018-03-03T23:24:08.416Z,63.25
2018-03-03T23:26:36.015Z,63.27
2018-03-03T23:29:03.656Z,62.94
2018-03-03T23:31:31.210Z,63.49
2018-03-03T23:33:59.651Z,64.21
2018-03-03T23:36:27.207Z,66.49
2018-03-03T23:38:54.794Z,66.23
2018-03-03T23:41:22.394Z,65.98
2018-03-03T23:43:49.999Z,66.07
2018-03-03T23:46:17.783Z,65.41
2018-03-03T23:48:45.442Z,66.48
2018-03-03T23:51:13.035Z,66.48
2018-03-03T23:53:40.576Z,65.88
2018-03-03T23:56:08.203Z,66.17
2018-03-03T23:58:35.739Z,65.29
